sensor_id;sensor_type;location;lat;lon;timestamp;P1;durP1;ratioP1;P2;durP2;ratioP2
13222;SDS011;6676;45.192;5.722;2023-05-07T00:01:47;1.77;;;0.68;;
13222;SDS011;6676;45.192;5.722;2023-05-07T00:04:41;2.47;;;0.72;;
13222;SDS011;6676;45.192;5.722;2023-05-07T00:07:34;2.42;;;0.68;;
13222;SDS011;6676;45.192;5.722;2023-05-07T00:10:25;1.30;;;0.70;;
13222;SDS011;6676;45.192;5.722;2023-05-07T00:13:16;1.05;;;0.72;;
13222;SDS011;6676;45.192;5.722;2023-05-07T00:16:08;1.85;;;0.68;;
13222;SDS011;6676;45.192;5.722;2023-05-07T00:19:00;1.25;;;0.70;;
13222;SDS011;6676;45.192;5.722;2023-05-07T00:21:51;1.20;;;0.70;;
13222;SDS011;6676;45.192;5.722;2023-05-07T00:24:44;2.58;;;0.78;;
13222;SDS011;6676;45.192;5.722;2023-05-07T00:27:36;4.20;;;0.70;;
13222;SDS011;6676;45.192;5.722;2023-05-07T00:30:27;2.62;;;0.70;;
13222;SDS011;6676;45.192;5.722;2023-05-07T00:33:19;2.45;;;0.62;;
13222;SDS011;6676;45.192;5.722;2023-05-07T00:36:11;2.83;;;0.80;;
13222;SDS011;6676;45.192;5.722;2023-05-07T00:39:02;3.02;;;0.98;;
13222;SDS011;6676;45.192;5.722;2023-05-07T00:41:54;2.52;;;0.82;;
13222;SDS011;6676;45.192;5.722;2023-05-07T00:44:46;1.22;;;0.75;;
13222;SDS011;6676;45.192;5.722;2023-05-07T00:47:37;3.62;;;0.70;;
13222;SDS011;6676;45.192;5.722;2023-05-07T00:50:28;3.15;;;0.70;;
13222;SDS011;6676;45.192;5.722;2023-05-07T00:53:21;2.15;;;0.70;;
13222;SDS011;6676;45.192;5.722;2023-05-07T00:56:13;1.50;;;0.60;;
13222;SDS011;6676;45.192;5.722;2023-05-07T00:59:04;2.17;;;0.90;;
13222;SDS011;6676;45.192;5.722;2023-05-07T01:01:58;4.33;;;0.80;;
13222;SDS011;6676;45.192;5.722;2023-05-07T01:04:51;2.37;;;0.70;;
13222;SDS011;6676;45.192;5.722;2023-05-07T01:07:45;2.00;;;0.80;;
13222;SDS011;6676;45.192;5.722;2023-05-07T01:10:38;1.55;;;0.82;;
13222;SDS011;6676;45.192;5.722;2023-05-07T01:13:32;2.02;;;0.80;;
13222;SDS011;6676;45.192;5.722;2023-05-07T01:16:25;1.02;;;0.70;;
13222;SDS011;6676;45.192;5.722;2023-05-07T01:19:18;1.98;;;0.70;;
13222;SDS011;6676;45.192;5.722;2023-05-07T01:22:10;1.22;;;0.70;;
13222;SDS011;6676;45.192;5.722;2023-05-07T01:25:08;1.42;;;0.70;;
13222;SDS011;6676;45.192;5.722;2023-05-07T01:28:01;2.42;;;0.70;;
13222;SDS011;6676;45.192;5.722;2023-05-07T01:30:56;1.10;;;0.68;;
13222;SDS011;6676;45.192;5.722;2023-05-07T01:33:51;1.98;;;0.75;;
13222;SDS011;6676;45.192;5.722;2023-05-07T01:36:43;1.95;;;0.70;;
13222;SDS011;6676;45.192;5.722;2023-05-07T01:39:37;2.70;;;0.82;;
13222;SDS011;6676;45.192;5.722;2023-05-07T01:42:30;2.65;;;0.80;;
13222;SDS011;6676;45.192;5.722;2023-05-07T01:45:20;1.65;;;0.70;;
13222;SDS011;6676;45.192;5.722;2023-05-07T01:48:13;2.37;;;0.90;;
13222;SDS011;6676;45.192;5.722;2023-05-07T01:50:56;1.77;;;0.70;;
13222;SDS011;6676;45.192;5.722;2023-05-07T01:53:48;4.35;;;0.80;;
13222;SDS011;6676;45.192;5.722;2023-05-07T01:56:42;2.40;;;1.05;;
13222;SDS011;6676;45.192;5.722;2023-05-07T01:59:33;2.20;;;0.82;;
13222;SDS011;6676;45.192;5.722;2023-05-07T02:02:25;2.33;;;0.70;;
13222;SDS011;6676;45.192;5.722;2023-05-07T02:05:17;3.12;;;0.80;;
13222;SDS011;6676;45.192;5.722;2023-05-07T02:08:10;6.33;;;1.00;;
13222;SDS011;6676;45.192;5.722;2023-05-07T02:11:02;2.45;;;0.78;;
13222;SDS011;6676;45.192;5.722;2023-05-07T02:13:55;1.05;;;0.80;;
13222;SDS011;6676;45.192;5.722;2023-05-07T02:16:46;1.50;;;0.80;;
13222;SDS011;6676;45.192;5.722;2023-05-07T02:19:38;0.88;;;0.70;;
13222;SDS011;6676;45.192;5.722;2023-05-07T02:22:31;2.42;;;0.90;;
13222;SDS011;6676;45.192;5.722;2023-05-07T02:25:22;1.62;;;0.90;;
13222;SDS011;6676;45.192;5.722;2023-05-07T02:28:14;1.87;;;1.00;;
13222;SDS011;6676;45.192;5.722;2023-05-07T02:31:07;3.27;;;0.90;;
13222;SDS011;6676;45.192;5.722;2023-05-07T02:33:58;1.30;;;0.88;;
13222;SDS011;6676;45.192;5.722;2023-05-07T02:36:50;0.80;;;0.80;;
13222;SDS011;6676;45.192;5.722;2023-05-07T02:39:43;1.32;;;0.80;;
13222;SDS011;6676;45.192;5.722;2023-05-07T02:42:37;1.20;;;0.80;;
13222;SDS011;6676;45.192;5.722;2023-05-07T02:45:29;2.62;;;0.98;;
13222;SDS011;6676;45.192;5.722;2023-05-07T02:48:24;1.22;;;0.62;;
13222;SDS011;6676;45.192;5.722;2023-05-07T02:51:14;1.72;;;0.90;;
13222;SDS011;6676;45.192;5.722;2023-05-07T02:54:07;1.85;;;1.10;;
13222;SDS011;6676;45.192;5.722;2023-05-07T02:56:59;2.12;;;0.90;;
13222;SDS011;6676;45.192;5.722;2023-05-07T02:59:52;2.22;;;1.20;;
13222;SDS011;6676;45.192;5.722;2023-05-07T03:02:43;2.65;;;1.22;;
13222;SDS011;6676;45.192;5.722;2023-05-07T03:05:37;2.55;;;0.90;;
13222;SDS011;6676;45.192;5.722;2023-05-07T03:08:28;1.07;;;0.85;;
13222;SDS011;6676;45.192;5.722;2023-05-07T03:11:19;2.17;;;0.80;;
13222;SDS011;6676;45.192;5.722;2023-05-07T03:14:10;2.27;;;1.20;;
13222;SDS011;6676;45.192;5.722;2023-05-07T03:17:02;0.93;;;0.70;;
13222;SDS011;6676;45.192;5.722;2023-05-07T03:19:53;2.95;;;0.90;;
13222;SDS011;6676;45.192;5.722;2023-05-07T03:22:45;1.55;;;0.90;;
13222;SDS011;6676;45.192;5.722;2023-05-07T03:25:43;1.55;;;0.80;;
13222;SDS011;6676;45.192;5.722;2023-05-07T03:28:38;1.30;;;0.90;;
13222;SDS011;6676;45.192;5.722;2023-05-07T03:31:32;1.35;;;0.98;;
13222;SDS011;6676;45.192;5.722;2023-05-07T03:34:24;1.55;;;0.88;;
13222;SDS011;6676;45.192;5.722;2023-05-07T03:37:16;1.55;;;0.80;;
13222;SDS011;6676;45.192;5.722;2023-05-07T03:40:08;1.52;;;0.90;;
13222;SDS011;6676;45.192;5.722;2023-05-07T03:43:03;2.15;;;1.00;;
13222;SDS011;6676;45.192;5.722;2023-05-07T03:45:56;2.47;;;0.90;;
13222;SDS011;6676;45.192;5.722;2023-05-07T03:48:48;3.85;;;1.20;;
13222;SDS011;6676;45.192;5.722;2023-05-07T03:51:41;2.30;;;1.07;;
13222;SDS011;6676;45.192;5.722;2023-05-07T03:54:33;1.87;;;1.27;;
13222;SDS011;6676;45.192;5.722;2023-05-07T03:57:24;4.55;;;1.35;;
13222;SDS011;6676;45.192;5.722;2023-05-07T04:00:18;2.87;;;1.47;;
13222;SDS011;6676;45.192;5.722;2023-05-07T04:03:09;1.27;;;0.90;;
13222;SDS011;6676;45.192;5.722;2023-05-07T04:06:04;2.02;;;1.10;;
13222;SDS011;6676;45.192;5.722;2023-05-07T04:08:56;2.22;;;1.32;;
13222;SDS011;6676;45.192;5.722;2023-05-07T04:11:48;2.12;;;1.10;;
13222;SDS011;6676;45.192;5.722;2023-05-07T04:14:39;4.55;;;1.10;;
13222;SDS011;6676;45.192;5.722;2023-05-07T04:17:32;3.30;;;1.27;;
13222;SDS011;6676;45.192;5.722;2023-05-07T04:20:25;2.65;;;1.35;;
13222;SDS011;6676;45.192;5.722;2023-05-07T04:23:18;3.45;;;1.27;;
13222;SDS011;6676;45.192;5.722;2023-05-07T04:26:10;1.80;;;1.15;;
13222;SDS011;6676;45.192;5.722;2023-05-07T04:29:03;1.75;;;1.10;;
13222;SDS011;6676;45.192;5.722;2023-05-07T04:31:56;2.47;;;1.32;;
13222;SDS011;6676;45.192;5.722;2023-05-07T04:34:48;1.22;;;1.05;;
13222;SDS011;6676;45.192;5.722;2023-05-07T04:37:40;2.92;;;1.30;;
13222;SDS011;6676;45.192;5.722;2023-05-07T04:40:32;1.65;;;1.20;;
13222;SDS011;6676;45.192;5.722;2023-05-07T04:43:25;1.45;;;1.22;;
13222;SDS011;6676;45.192;5.722;2023-05-07T04:46:17;1.85;;;1.37;;
13222;SDS011;6676;45.192;5.722;2023-05-07T04:49:10;3.35;;;1.22;;
13222;SDS011;6676;45.192;5.722;2023-05-07T04:52:01;2.25;;;1.10;;
13222;SDS011;6676;45.192;5.722;2023-05-07T04:54:54;2.35;;;1.10;;
13222;SDS011;6676;45.192;5.722;2023-05-07T04:57:45;3.95;;;1.42;;
13222;SDS011;6676;45.192;5.722;2023-05-07T05:00:41;2.00;;;1.72;;
13222;SDS011;6676;45.192;5.722;2023-05-07T05:03:33;1.45;;;1.35;;
13222;SDS011;6676;45.192;5.722;2023-05-07T05:06:25;1.52;;;1.27;;
13222;SDS011;6676;45.192;5.722;2023-05-07T05:09:16;3.70;;;1.67;;
13222;SDS011;6676;45.192;5.722;2023-05-07T05:12:08;4.78;;;1.40;;
13222;SDS011;6676;45.192;5.722;2023-05-07T05:15:00;1.52;;;1.40;;
13222;SDS011;6676;45.192;5.722;2023-05-07T05:17:52;2.27;;;1.50;;
13222;SDS011;6676;45.192;5.722;2023-05-07T05:20:44;3.83;;;1.70;;
13222;SDS011;6676;45.192;5.722;2023-05-07T05:23:39;1.87;;;1.50;;
13222;SDS011;6676;45.192;5.722;2023-05-07T05:26:32;2.83;;;1.50;;
13222;SDS011;6676;45.192;5.722;2023-05-07T05:29:23;2.02;;;1.40;;
13222;SDS011;6676;45.192;5.722;2023-05-07T05:32:15;2.05;;;1.65;;
13222;SDS011;6676;45.192;5.722;2023-05-07T05:35:07;4.08;;;1.85;;
13222;SDS011;6676;45.192;5.722;2023-05-07T05:38:01;2.75;;;1.57;;
13222;SDS011;6676;45.192;5.722;2023-05-07T05:40:53;4.30;;;1.47;;
13222;SDS011;6676;45.192;5.722;2023-05-07T05:43:45;1.82;;;1.30;;
13222;SDS011;6676;45.192;5.722;2023-05-07T05:46:39;1.95;;;1.50;;
13222;SDS011;6676;45.192;5.722;2023-05-07T05:49:31;3.35;;;1.67;;
13222;SDS011;6676;45.192;5.722;2023-05-07T05:52:24;1.80;;;1.42;;
13222;SDS011;6676;45.192;5.722;2023-05-07T05:55:16;2.08;;;1.60;;
13222;SDS011;6676;45.192;5.722;2023-05-07T05:58:09;5.33;;;1.30;;
13222;SDS011;6676;45.192;5.722;2023-05-07T06:01:02;2.33;;;1.30;;
13222;SDS011;6676;45.192;5.722;2023-05-07T06:03:55;2.60;;;1.47;;
13222;SDS011;6676;45.192;5.722;2023-05-07T06:06:47;3.27;;;1.45;;
13222;SDS011;6676;45.192;5.722;2023-05-07T06:09:40;2.45;;;1.27;;
13222;SDS011;6676;45.192;5.722;2023-05-07T06:12:33;2.50;;;1.50;;
13222;SDS011;6676;45.192;5.722;2023-05-07T06:15:24;2.05;;;1.50;;
13222;SDS011;6676;45.192;5.722;2023-05-07T06:18:20;2.95;;;1.45;;
13222;SDS011;6676;45.192;5.722;2023-05-07T06:21:14;1.82;;;1.17;;
13222;SDS011;6676;45.192;5.722;2023-05-07T06:24:06;3.27;;;1.30;;
13222;SDS011;6676;45.192;5.722;2023-05-07T06:29:40;2.08;;;1.45;;
13222;SDS011;6676;45.192;5.722;2023-05-07T06:32:33;3.77;;;1.37;;
13222;SDS011;6676;45.192;5.722;2023-05-07T06:35:26;2.05;;;1.15;;
13222;SDS011;6676;45.192;5.722;2023-05-07T06:38:17;3.20;;;1.20;;
13222;SDS011;6676;45.192;5.722;2023-05-07T06:41:09;4.83;;;1.15;;
13222;SDS011;6676;45.192;5.722;2023-05-07T06:44:00;3.15;;;1.25;;
13222;SDS011;6676;45.192;5.722;2023-05-07T06:46:59;2.47;;;1.40;;
13222;SDS011;6676;45.192;5.722;2023-05-07T06:49:50;2.67;;;1.32;;
13222;SDS011;6676;45.192;5.722;2023-05-07T06:52:46;1.00;;;0.90;;
13222;SDS011;6676;45.192;5.722;2023-05-07T06:55:38;2.75;;;1.10;;
13222;SDS011;6676;45.192;5.722;2023-05-07T06:58:30;3.08;;;1.50;;
13222;SDS011;6676;45.192;5.722;2023-05-07T07:01:22;1.77;;;1.20;;
13222;SDS011;6676;45.192;5.722;2023-05-07T07:04:13;1.80;;;1.20;;
13222;SDS011;6676;45.192;5.722;2023-05-07T07:07:09;3.62;;;1.15;;
13222;SDS011;6676;45.192;5.722;2023-05-07T07:10:05;2.62;;;1.20;;
13222;SDS011;6676;45.192;5.722;2023-05-07T07:12:58;2.22;;;1.12;;
13222;SDS011;6676;45.192;5.722;2023-05-07T07:15:50;1.82;;;1.00;;
13222;SDS011;6676;45.192;5.722;2023-05-07T07:18:42;4.33;;;1.05;;
13222;SDS011;6676;45.192;5.722;2023-05-07T07:21:42;1.60;;;1.17;;
13222;SDS011;6676;45.192;5.722;2023-05-07T07:24:42;5.85;;;1.10;;
13222;SDS011;6676;45.192;5.722;2023-05-07T07:27:36;4.78;;;1.15;;
13222;SDS011;6676;45.192;5.722;2023-05-07T07:30:32;3.62;;;1.20;;
13222;SDS011;6676;45.192;5.722;2023-05-07T07:33:24;2.30;;;1.37;;
13222;SDS011;6676;45.192;5.722;2023-05-07T07:36:17;5.28;;;1.10;;
13222;SDS011;6676;45.192;5.722;2023-05-07T07:39:10;3.77;;;1.10;;
13222;SDS011;6676;45.192;5.722;2023-05-07T07:42:03;2.77;;;1.40;;
13222;SDS011;6676;45.192;5.722;2023-05-07T07:44:58;4.35;;;1.27;;
13222;SDS011;6676;45.192;5.722;2023-05-07T07:47:53;4.73;;;1.43;;
13222;SDS011;6676;45.192;5.722;2023-05-07T07:50:49;1.80;;;1.07;;
13222;SDS011;6676;45.192;5.722;2023-05-07T07:53:40;3.62;;;1.30;;
13222;SDS011;6676;45.192;5.722;2023-05-07T07:56:32;1.45;;;1.35;;
13222;SDS011;6676;45.192;5.722;2023-05-07T07:59:26;2.75;;;1.50;;
13222;SDS011;6676;45.192;5.722;2023-05-07T08:02:19;1.52;;;1.15;;
13222;SDS011;6676;45.192;5.722;2023-05-07T08:05:11;3.10;;;1.20;;
13222;SDS011;6676;45.192;5.722;2023-05-07T08:08:04;1.82;;;1.27;;
13222;SDS011;6676;45.192;5.722;2023-05-07T08:10:57;1.35;;;1.05;;
13222;SDS011;6676;45.192;5.722;2023-05-07T08:13:50;2.25;;;1.12;;
13222;SDS011;6676;45.192;5.722;2023-05-07T08:16:43;2.65;;;1.30;;
13222;SDS011;6676;45.192;5.722;2023-05-07T08:19:35;2.85;;;1.20;;
13222;SDS011;6676;45.192;5.722;2023-05-07T08:22:28;1.92;;;1.27;;
13222;SDS011;6676;45.192;5.722;2023-05-07T08:25:20;2.10;;;1.20;;
13222;SDS011;6676;45.192;5.722;2023-05-07T08:28:12;3.47;;;1.30;;
13222;SDS011;6676;45.192;5.722;2023-05-07T08:31:03;1.55;;;1.30;;
13222;SDS011;6676;45.192;5.722;2023-05-07T08:33:56;1.42;;;1.25;;
13222;SDS011;6676;45.192;5.722;2023-05-07T08:36:49;4.30;;;1.45;;
13222;SDS011;6676;45.192;5.722;2023-05-07T08:39:42;1.67;;;1.20;;
13222;SDS011;6676;45.192;5.722;2023-05-07T08:42:36;2.83;;;1.30;;
13222;SDS011;6676;45.192;5.722;2023-05-07T08:45:16;2.08;;;1.20;;
13222;SDS011;6676;45.192;5.722;2023-05-07T08:48:14;2.80;;;1.57;;
13222;SDS011;6676;45.192;5.722;2023-05-07T08:51:11;2.25;;;1.30;;
13222;SDS011;6676;45.192;5.722;2023-05-07T08:54:06;3.55;;;1.52;;
13222;SDS011;6676;45.192;5.722;2023-05-07T08:56:59;3.25;;;1.15;;
13222;SDS011;6676;45.192;5.722;2023-05-07T08:59:52;2.12;;;1.15;;
13222;SDS011;6676;45.192;5.722;2023-05-07T09:02:44;4.25;;;1.22;;
13222;SDS011;6676;45.192;5.722;2023-05-07T09:05:36;2.65;;;1.20;;
13222;SDS011;6676;45.192;5.722;2023-05-07T09:08:28;3.98;;;1.30;;
13222;SDS011;6676;45.192;5.722;2023-05-07T09:11:23;2.37;;;1.55;;
13222;SDS011;6676;45.192;5.722;2023-05-07T09:14:16;1.62;;;1.20;;
13222;SDS011;6676;45.192;5.722;2023-05-07T09:17:09;1.90;;;1.22;;
13222;SDS011;6676;45.192;5.722;2023-05-07T09:20:05;3.02;;;1.02;;
13222;SDS011;6676;45.192;5.722;2023-05-07T09:22:59;1.67;;;1.10;;
13222;SDS011;6676;45.192;5.722;2023-05-07T09:25:52;3.08;;;1.47;;
13222;SDS011;6676;45.192;5.722;2023-05-07T09:28:46;2.85;;;1.72;;
13222;SDS011;6676;45.192;5.722;2023-05-07T09:31:37;4.22;;;2.20;;
13222;SDS011;6676;45.192;5.722;2023-05-07T09:34:31;3.30;;;2.17;;
13222;SDS011;6676;45.192;5.722;2023-05-07T09:37:23;2.33;;;1.87;;
13222;SDS011;6676;45.192;5.722;2023-05-07T09:40:23;3.67;;;2.00;;
13222;SDS011;6676;45.192;5.722;2023-05-07T09:43:23;3.75;;;1.92;;
13222;SDS011;6676;45.192;5.722;2023-05-07T09:46:16;2.47;;;1.62;;
13222;SDS011;6676;45.192;5.722;2023-05-07T09:49:16;3.62;;;2.72;;
13222;SDS011;6676;45.192;5.722;2023-05-07T09:52:08;3.25;;;1.17;;
13222;SDS011;6676;45.192;5.722;2023-05-07T09:55:06;3.37;;;1.25;;
13222;SDS011;6676;45.192;5.722;2023-05-07T09:57:59;3.05;;;1.50;;
13222;SDS011;6676;45.192;5.722;2023-05-07T10:00:54;4.15;;;1.10;;
13222;SDS011;6676;45.192;5.722;2023-05-07T10:03:49;3.45;;;1.22;;
13222;SDS011;6676;45.192;5.722;2023-05-07T10:06:42;2.22;;;1.10;;
13222;SDS011;6676;45.192;5.722;2023-05-07T10:09:37;1.20;;;0.80;;
13222;SDS011;6676;45.192;5.722;2023-05-07T10:12:33;4.40;;;0.90;;
13222;SDS011;6676;45.192;5.722;2023-05-07T10:15:30;1.50;;;0.60;;
13222;SDS011;6676;45.192;5.722;2023-05-07T10:18:25;1.55;;;0.72;;
13222;SDS011;6676;45.192;5.722;2023-05-07T10:21:20;2.90;;;0.82;;
13222;SDS011;6676;45.192;5.722;2023-05-07T10:24:19;1.65;;;0.80;;
13222;SDS011;6676;45.192;5.722;2023-05-07T10:27:12;1.65;;;0.90;;
13222;SDS011;6676;45.192;5.722;2023-05-07T10:30:15;2.47;;;0.90;;
13222;SDS011;6676;45.192;5.722;2023-05-07T10:33:04;1.27;;;0.95;;
13222;SDS011;6676;45.192;5.722;2023-05-07T10:35:59;2.08;;;0.93;;
13222;SDS011;6676;45.192;5.722;2023-05-07T10:38:53;0.60;;;0.60;;
13222;SDS011;6676;45.192;5.722;2023-05-07T10:41:45;1.62;;;0.85;;
13222;SDS011;6676;45.192;5.722;2023-05-07T10:44:38;1.95;;;1.00;;
13222;SDS011;6676;45.192;5.722;2023-05-07T10:47:32;1.25;;;0.90;;
13222;SDS011;6676;45.192;5.722;2023-05-07T10:50:24;2.87;;;0.70;;
13222;SDS011;6676;45.192;5.722;2023-05-07T10:53:25;1.25;;;0.78;;
13222;SDS011;6676;45.192;5.722;2023-05-07T10:56:32;1.52;;;1.05;;
13222;SDS011;6676;45.192;5.722;2023-05-07T10:59:37;1.20;;;0.93;;
13222;SDS011;6676;45.192;5.722;2023-05-07T11:06:13;1.07;;;0.80;;
13222;SDS011;6676;45.192;5.722;2023-05-07T11:09:15;2.17;;;0.82;;
13222;SDS011;6676;45.192;5.722;2023-05-07T11:12:14;1.75;;;1.00;;
13222;SDS011;6676;45.192;5.722;2023-05-07T11:15:42;3.15;;;1.62;;
13222;SDS011;6676;45.192;5.722;2023-05-07T11:18:56;0.93;;;0.90;;
13222;SDS011;6676;45.192;5.722;2023-05-07T11:21:50;0.85;;;0.70;;
13222;SDS011;6676;45.192;5.722;2023-05-07T11:24:48;2.43;;;0.80;;
13222;SDS011;6676;45.192;5.722;2023-05-07T11:27:44;1.75;;;0.80;;
13222;SDS011;6676;45.192;5.722;2023-05-07T11:30:41;0.90;;;0.80;;
13222;SDS011;6676;45.192;5.722;2023-05-07T11:33:41;1.93;;;0.90;;
13222;SDS011;6676;45.192;5.722;2023-05-07T11:36:54;1.62;;;0.90;;
13222;SDS011;6676;45.192;5.722;2023-05-07T11:40:02;0.98;;;0.88;;
13222;SDS011;6676;45.192;5.722;2023-05-07T11:42:58;1.40;;;0.80;;
13222;SDS011;6676;45.192;5.722;2023-05-07T11:45:54;0.45;;;0.45;;
13222;SDS011;6676;45.192;5.722;2023-05-07T11:48:50;1.72;;;0.80;;
13222;SDS011;6676;45.192;5.722;2023-05-07T11:54:24;1.22;;;0.70;;
13222;SDS011;6676;45.192;5.722;2023-05-07T11:57:15;1.45;;;0.72;;
13222;SDS011;6676;45.192;5.722;2023-05-07T12:00:08;1.17;;;0.75;;
13222;SDS011;6676;45.192;5.722;2023-05-07T12:05:41;2.12;;;1.07;;
13222;SDS011;6676;45.192;5.722;2023-05-07T12:08:32;0.82;;;0.70;;
13222;SDS011;6676;45.192;5.722;2023-05-07T12:11:25;1.32;;;0.70;;
13222;SDS011;6676;45.192;5.722;2023-05-07T12:14:17;2.30;;;0.78;;
13222;SDS011;6676;45.192;5.722;2023-05-07T12:17:09;1.30;;;0.72;;
13222;SDS011;6676;45.192;5.722;2023-05-07T12:20:02;1.80;;;1.02;;
13222;SDS011;6676;45.192;5.722;2023-05-07T12:22:54;2.25;;;1.02;;
13222;SDS011;6676;45.192;5.722;2023-05-07T12:25:35;1.42;;;1.07;;
13222;SDS011;6676;45.192;5.722;2023-05-07T12:28:28;2.15;;;0.95;;
13222;SDS011;6676;45.192;5.722;2023-05-07T12:31:28;1.10;;;0.80;;
13222;SDS011;6676;45.192;5.722;2023-05-07T12:34:20;1.25;;;0.85;;
13222;SDS011;6676;45.192;5.722;2023-05-07T12:37:14;1.45;;;1.00;;
13222;SDS011;6676;45.192;5.722;2023-05-07T12:40:07;1.17;;;0.90;;
13222;SDS011;6676;45.192;5.722;2023-05-07T12:43:01;0.98;;;0.80;;
13222;SDS011;6676;45.192;5.722;2023-05-07T12:45:53;1.17;;;0.90;;
13222;SDS011;6676;45.192;5.722;2023-05-07T12:48:46;1.52;;;0.90;;
13222;SDS011;6676;45.192;5.722;2023-05-07T12:51:38;1.25;;;0.70;;
13222;SDS011;6676;45.192;5.722;2023-05-07T12:54:30;1.32;;;0.85;;
13222;SDS011;6676;45.192;5.722;2023-05-07T12:57:22;1.40;;;0.90;;
13222;SDS011;6676;45.192;5.722;2023-05-07T13:00:15;1.30;;;1.05;;
13222;SDS011;6676;45.192;5.722;2023-05-07T13:03:07;1.95;;;1.15;;
13222;SDS011;6676;45.192;5.722;2023-05-07T13:06:00;2.00;;;0.90;;
13222;SDS011;6676;45.192;5.722;2023-05-07T13:08:53;1.57;;;0.70;;
13222;SDS011;6676;45.192;5.722;2023-05-07T13:11:45;0.93;;;0.68;;
13222;SDS011;6676;45.192;5.722;2023-05-07T13:14:36;1.87;;;1.10;;
13222;SDS011;6676;45.192;5.722;2023-05-07T13:17:28;1.22;;;0.90;;
13222;SDS011;6676;45.192;5.722;2023-05-07T13:20:20;1.35;;;0.90;;
13222;SDS011;6676;45.192;5.722;2023-05-07T13:23:11;2.50;;;1.00;;
13222;SDS011;6676;45.192;5.722;2023-05-07T13:26:03;3.45;;;1.02;;
13222;SDS011;6676;45.192;5.722;2023-05-07T13:28:56;1.35;;;0.80;;
13222;SDS011;6676;45.192;5.722;2023-05-07T13:31:47;0.72;;;0.60;;
13222;SDS011;6676;45.192;5.722;2023-05-07T13:34:39;2.75;;;0.70;;
13222;SDS011;6676;45.192;5.722;2023-05-07T13:37:30;1.07;;;0.80;;
13222;SDS011;6676;45.192;5.722;2023-05-07T13:40:22;1.00;;;0.70;;
13222;SDS011;6676;45.192;5.722;2023-05-07T13:43:14;1.90;;;1.10;;
13222;SDS011;6676;45.192;5.722;2023-05-07T13:46:07;1.60;;;0.90;;
13222;SDS011;6676;45.192;5.722;2023-05-07T13:48:58;1.32;;;1.05;;
13222;SDS011;6676;45.192;5.722;2023-05-07T13:51:50;2.00;;;0.80;;
13222;SDS011;6676;45.192;5.722;2023-05-07T13:54:42;1.10;;;0.80;;
13222;SDS011;6676;45.192;5.722;2023-05-07T13:57:33;1.20;;;1.00;;
13222;SDS011;6676;45.192;5.722;2023-05-07T14:00:25;1.22;;;0.98;;
13222;SDS011;6676;45.192;5.722;2023-05-07T14:03:17;2.35;;;0.90;;
13222;SDS011;6676;45.192;5.722;2023-05-07T14:06:09;1.15;;;0.80;;
13222;SDS011;6676;45.192;5.722;2023-05-07T14:09:00;1.10;;;0.80;;
13222;SDS011;6676;45.192;5.722;2023-05-07T14:11:53;1.02;;;0.93;;
13222;SDS011;6676;45.192;5.722;2023-05-07T14:14:46;1.67;;;0.80;;
13222;SDS011;6676;45.192;5.722;2023-05-07T14:17:38;0.78;;;0.68;;
13222;SDS011;6676;45.192;5.722;2023-05-07T14:20:30;0.88;;;0.78;;
13222;SDS011;6676;45.192;5.722;2023-05-07T14:23:21;2.12;;;0.80;;
13222;SDS011;6676;45.192;5.722;2023-05-07T14:26:14;1.52;;;0.80;;
13222;SDS011;6676;45.192;5.722;2023-05-07T14:29:08;0.80;;;0.80;;
13222;SDS011;6676;45.192;5.722;2023-05-07T14:32:06;1.67;;;1.00;;
13222;SDS011;6676;45.192;5.722;2023-05-07T14:37:49;1.65;;;1.00;;
13222;SDS011;6676;45.192;5.722;2023-05-07T14:40:47;2.05;;;0.80;;
13222;SDS011;6676;45.192;5.722;2023-05-07T14:43:40;1.62;;;0.90;;
13222;SDS011;6676;45.192;5.722;2023-05-07T14:46:38;0.95;;;0.90;;
13222;SDS011;6676;45.192;5.722;2023-05-07T14:49:30;1.32;;;0.90;;
13222;SDS011;6676;45.192;5.722;2023-05-07T14:52:22;0.72;;;0.65;;
13222;SDS011;6676;45.192;5.722;2023-05-07T14:55:14;1.05;;;0.78;;
13222;SDS011;6676;45.192;5.722;2023-05-07T14:58:09;2.75;;;1.00;;
13222;SDS011;6676;45.192;5.722;2023-05-07T15:01:02;1.10;;;0.90;;
13222;SDS011;6676;45.192;5.722;2023-05-07T15:03:59;1.82;;;0.90;;
13222;SDS011;6676;45.192;5.722;2023-05-07T15:06:51;1.12;;;0.90;;
13222;SDS011;6676;45.192;5.722;2023-05-07T15:09:44;1.35;;;0.80;;
13222;SDS011;6676;45.192;5.722;2023-05-07T15:12:35;1.17;;;0.78;;
13222;SDS011;6676;45.192;5.722;2023-05-07T15:15:27;0.70;;;0.70;;
13222;SDS011;6676;45.192;5.722;2023-05-07T15:18:23;0.78;;;0.70;;
13222;SDS011;6676;45.192;5.722;2023-05-07T15:21:24;1.52;;;0.70;;
13222;SDS011;6676;45.192;5.722;2023-05-07T15:24:20;0.47;;;0.40;;
13222;SDS011;6676;45.192;5.722;2023-05-07T15:27:12;1.65;;;0.57;;
13222;SDS011;6676;45.192;5.722;2023-05-07T15:30:06;0.70;;;0.50;;
13222;SDS011;6676;45.192;5.722;2023-05-07T15:33:02;0.95;;;0.70;;
13222;SDS011;6676;45.192;5.722;2023-05-07T15:38:32;1.65;;;1.00;;
13222;SDS011;6676;45.192;5.722;2023-05-07T15:41:24;0.70;;;0.60;;
13222;SDS011;6676;45.192;5.722;2023-05-07T15:44:16;0.65;;;0.60;;
13222;SDS011;6676;45.192;5.722;2023-05-07T15:47:07;0.72;;;0.60;;
13222;SDS011;6676;45.192;5.722;2023-05-07T15:49:59;3.08;;;0.72;;
13222;SDS011;6676;45.192;5.722;2023-05-07T15:52:50;0.90;;;0.50;;
13222;SDS011;6676;45.192;5.722;2023-05-07T15:58:20;0.55;;;0.50;;
13222;SDS011;6676;45.192;5.722;2023-05-07T16:01:11;0.60;;;0.40;;
13222;SDS011;6676;45.192;5.722;2023-05-07T16:04:03;0.80;;;0.53;;
13222;SDS011;6676;45.192;5.722;2023-05-07T16:06:55;0.60;;;0.60;;
13222;SDS011;6676;45.192;5.722;2023-05-07T16:09:46;1.20;;;0.47;;
13222;SDS011;6676;45.192;5.722;2023-05-07T16:12:38;0.95;;;0.35;;
13222;SDS011;6676;45.192;5.722;2023-05-07T16:15:29;0.70;;;0.50;;
13222;SDS011;6676;45.192;5.722;2023-05-07T16:18:20;0.45;;;0.40;;
13222;SDS011;6676;45.192;5.722;2023-05-07T16:21:12;0.40;;;0.23;;
13222;SDS011;6676;45.192;5.722;2023-05-07T16:24:03;1.20;;;0.50;;
13222;SDS011;6676;45.192;5.722;2023-05-07T16:26:55;1.25;;;0.37;;
13222;SDS011;6676;45.192;5.722;2023-05-07T16:29:46;0.78;;;0.50;;
13222;SDS011;6676;45.192;5.722;2023-05-07T16:32:37;1.65;;;0.50;;
13222;SDS011;6676;45.192;5.722;2023-05-07T16:35:29;0.95;;;0.40;;
13222;SDS011;6676;45.192;5.722;2023-05-07T16:38:21;1.85;;;0.40;;
13222;SDS011;6676;45.192;5.722;2023-05-07T16:41:14;2.25;;;0.62;;
13222;SDS011;6676;45.192;5.722;2023-05-07T16:44:05;0.78;;;0.50;;
13222;SDS011;6676;45.192;5.722;2023-05-07T16:46:57;1.60;;;0.82;;
13222;SDS011;6676;45.192;5.722;2023-05-07T16:49:49;0.93;;;0.82;;
13222;SDS011;6676;45.192;5.722;2023-05-07T16:55:19;1.37;;;0.93;;
13222;SDS011;6676;45.192;5.722;2023-05-07T16:58:11;1.80;;;1.25;;
13222;SDS011;6676;45.192;5.722;2023-05-07T17:03:41;2.50;;;1.50;;
13222;SDS011;6676;45.192;5.722;2023-05-07T17:06:32;2.47;;;1.40;;
13222;SDS011;6676;45.192;5.722;2023-05-07T17:09:24;1.00;;;0.80;;
13222;SDS011;6676;45.192;5.722;2023-05-07T17:12:15;1.65;;;0.90;;
13222;SDS011;6676;45.192;5.722;2023-05-07T17:15:08;0.78;;;0.60;;
13222;SDS011;6676;45.192;5.722;2023-05-07T17:20:46;1.32;;;0.90;;
13222;SDS011;6676;45.192;5.722;2023-05-07T17:23:37;1.12;;;0.40;;
13222;SDS011;6676;45.192;5.722;2023-05-07T17:26:29;1.00;;;0.40;;
13222;SDS011;6676;45.192;5.722;2023-05-07T17:32:01;2.95;;;0.98;;
13222;SDS011;6676;45.192;5.722;2023-05-07T17:34:57;3.17;;;1.20;;
13222;SDS011;6676;45.192;5.722;2023-05-07T17:37:49;0.95;;;0.65;;
13222;SDS011;6676;45.192;5.722;2023-05-07T17:43:23;0.95;;;0.78;;
13222;SDS011;6676;45.192;5.722;2023-05-07T17:46:14;2.75;;;1.47;;
13222;SDS011;6676;45.192;5.722;2023-05-07T17:49:06;2.52;;;1.87;;
13222;SDS011;6676;45.192;5.722;2023-05-07T17:51:58;2.10;;;1.90;;
13222;SDS011;6676;45.192;5.722;2023-05-07T17:54:49;3.15;;;2.10;;
13222;SDS011;6676;45.192;5.722;2023-05-07T17:57:41;2.58;;;2.15;;
13222;SDS011;6676;45.192;5.722;2023-05-07T18:00:32;2.25;;;1.10;;
13222;SDS011;6676;45.192;5.722;2023-05-07T18:03:25;2.67;;;1.70;;
13222;SDS011;6676;45.192;5.722;2023-05-07T18:06:18;0.90;;;0.72;;
13222;SDS011;6676;45.192;5.722;2023-05-07T18:11:50;1.17;;;0.40;;
13222;SDS011;6676;45.192;5.722;2023-05-07T18:17:20;0.82;;;0.40;;